createdAt,value
2018-10-18T00:01:31.656Z,92.53
2018-10-18T00:04:01.160Z,92.79
2018-10-18T00:06:30.630Z,92.81
2018-10-18T00:09:00.300Z,92.65
2018-10-18T00:11:29.790Z,92.90
2018-10-18T00:13:59.255Z,93.21
2018-10-18T00:16:28.742Z,92.94
2018-10-18T00:18:58.309Z,92.52
2018-10-18T00:21:28.142Z,91.88
2018-10-18T00:23:57.592Z,92.05
2018-10-18T00:26:27.080Z,91.95
2018-10-18T00:28:55.711Z,91.54
2018-10-18T00:31:24.320Z,91.46
2018-10-18T00:33:53.909Z,91.93
2018-10-18T00:36:22.450Z,92.36
2018-10-18T00:38:51.940Z,92.51
2018-10-18T00:41:20.510Z,92.67
2018-10-18T00:43:49.077Z,92.84
2018-10-18T00:46:18.640Z,92.92
2018-10-18T00:48:47.263Z,93.54
2018-10-18T00:51:16.988Z,93.42
2018-10-18T00:53:46.746Z,93.36
2018-10-18T00:56:17.547Z,92.60
2018-10-18T00:58:47.092Z,92.37
2018-10-18T01:01:16.282Z,92.72
2018-10-18T01:03:46.491Z,92.69
2018-10-18T01:06:16.964Z,91.42
2018-10-18T01:08:46.522Z,90.67
2018-10-18T01:11:15.593Z,91.26
2018-10-18T01:13:44.291Z,91.07
2018-10-18T01:16:13.954Z,91.05
2018-10-18T01:18:44.521Z,91.68
2018-10-18T01:21:14.483Z,92.19
2018-10-18T01:23:43.370Z,92.41
2018-10-18T01:26:13.971Z,92.29
2018-10-18T01:28:44.126Z,92.32
2018-10-18T01:31:12.822Z,92.54
2018-10-18T01:33:41.391Z,92.92
2018-10-18T01:36:11.177Z,92.99
2018-10-18T01:38:39.763Z,93.12
2018-10-18T01:41:09.671Z,93.23
2018-10-18T01:43:38.282Z,92.70
2018-10-18T01:46:07.235Z,92.17
2018-10-18T01:48:36.061Z,92.50
2018-10-18T01:51:04.643Z,92.84
2018-10-18T01:53:33.212Z,92.94
2018-10-18T01:56:02.171Z,93.30
2018-10-18T01:58:30.740Z,93.67
2018-10-18T02:00:59.280Z,93.80
2018-10-18T02:03:27.831Z,93.93
2018-10-18T02:05:56.416Z,93.95
2018-10-18T02:08:25.867Z,93.85
2018-10-18T02:10:54.415Z,93.40
2018-10-18T02:13:23.891Z,93.01
2018-10-18T02:15:52.871Z,92.64
2018-10-18T02:18:21.465Z,92.97
2018-10-18T02:20:50.019Z,92.87
2018-10-18T02:23:18.599Z,93.29
2018-10-18T02:25:47.136Z,93.32
2018-10-18T02:28:16.450Z,93.35
2018-10-18T02:30:45.580Z,93.63
2018-10-18T02:33:14.611Z,93.70
2018-10-18T02:35:43.747Z,93.63
2018-10-18T02:38:12.280Z,93.77
2018-10-18T02:40:41.823Z,94.29
2018-10-18T02:43:10.403Z,94.42
2018-10-18T02:45:40.803Z,94.53
2018-10-18T02:48:10.308Z,93.95
2018-10-18T02:50:38.913Z,94.07
2018-10-18T02:53:07.503Z,93.99
2018-10-18T02:55:36.048Z,93.33
2018-10-18T02:58:04.681Z,92.71
2018-10-18T03:00:34.157Z,92.72
2018-10-18T03:03:03.717Z,92.95
2018-10-18T03:05:32.287Z,93.27
2018-10-18T03:08:01.933Z,93.12
2018-10-18T03:10:31.370Z,93.63
2018-10-18T03:13:00.851Z,93.44
2018-10-18T03:15:30.321Z,93.39
2018-10-18T03:17:59.821Z,93.77
2018-10-18T03:20:29.237Z,93.92
2018-10-18T03:22:58.807Z,93.79
2018-10-18T03:25:28.482Z,94.03
2018-10-18T03:27:57.950Z,93.97
2018-10-18T03:30:26.531Z,94.07
2018-10-18T03:32:56.097Z,94.06
2018-10-18T03:35:25.899Z,94.35
2018-10-18T03:37:55.325Z,94.89
2018-10-18T03:40:24.075Z,95.10
2018-10-18T03:42:53.530Z,95.36
2018-10-18T03:45:23.057Z,95.38
2018-10-18T03:47:52.748Z,94.98
2018-10-18T03:50:21.389Z,94.72
2018-10-18T03:52:50.418Z,94.54
2018-10-18T03:55:19.883Z,94.64
2018-10-18T03:57:49.312Z,94.47
2018-10-18T04:00:17.890Z,94.39
2018-10-18T04:02:47.381Z,95.07
2018-10-18T04:05:16.710Z,95.90
2018-10-18T04:07:47.280Z,96.33
2018-10-18T04:10:16.928Z,95.96
2018-10-18T04:12:47.472Z,94.68
2018-10-18T04:15:16.623Z,94.07
2018-10-18T04:17:46.191Z,94.31
2018-10-18T04:20:14.938Z,94.79
2018-10-18T04:22:44.509Z,94.93
2018-10-18T04:25:13.367Z,94.98
2018-10-18T04:27:41.898Z,94.95
2018-10-18T04:30:10.529Z,94.82
2018-10-18T04:32:39.063Z,93.95
2018-10-18T04:35:07.958Z,93.02
2018-10-18T04:37:36.769Z,92.74
2018-10-18T04:40:07.192Z,92.96
2018-10-18T04:42:35.876Z,92.55
2018-10-18T04:45:05.274Z,92.18
2018-10-18T04:47:33.880Z,92.02
2018-10-18T04:50:02.420Z,92.68
2018-10-18T04:52:30.954Z,93.03
2018-10-18T04:54:59.508Z,93.57
2018-10-18T04:57:28.330Z,93.67
2018-10-18T04:59:57.928Z,93.13
2018-10-18T05:02:26.871Z,93.25
2018-10-18T05:05:06.724Z,93.32
2018-10-18T05:07:36.349Z,93.84
2018-10-18T05:10:05.651Z,94.37
2018-10-18T05:12:34.346Z,94.42
2018-10-18T05:15:03.308Z,94.44
2018-10-18T05:17:31.864Z,93.70
2018-10-18T05:20:01.275Z,93.78
2018-10-18T05:22:31.227Z,93.82
2018-10-18T05:25:00.744Z,93.69
2018-10-18T05:27:29.258Z,93.96
2018-10-18T05:29:58.237Z,94.07
2018-10-18T05:32:26.801Z,94.22
2018-10-18T05:34:55.674Z,94.22
2018-10-18T05:37:24.473Z,93.85
2018-10-18T05:39:53.040Z,93.30
2018-10-18T05:42:21.617Z,93.32
2018-10-18T05:44:50.174Z,93.45
2018-10-18T05:47:18.886Z,93.60
2018-10-18T05:49:48.509Z,93.62
2018-10-18T05:52:17.190Z,94.07
2018-10-18T05:54:46.453Z,93.99
2018-10-18T05:57:16.004Z,93.93
2018-10-18T05:59:45.668Z,94.22
2018-10-18T06:02:14.530Z,94.59
2018-10-18T06:04:43.082Z,94.73
2018-10-18T06:07:12.099Z,95.08
2018-10-18T06:09:40.801Z,95.49
2018-10-18T06:12:09.364Z,95.41
2018-10-18T06:14:37.902Z,95.15
2018-10-18T06:17:06.531Z,95.02
2018-10-18T06:19:35.926Z,94.99
2018-10-18T06:22:05.823Z,94.89
2018-10-18T06:24:35.511Z,94.83
2018-10-18T06:27:04.206Z,94.25
2018-10-18T06:29:33.284Z,93.11
2018-10-18T06:32:03.003Z,92.85
2018-10-18T06:34:32.452Z,93.25
2018-10-18T06:37:01.050Z,92.82
2018-10-18T06:39:30.605Z,92.42
2018-10-18T06:41:59.167Z,92.76
2018-10-18T06:44:28.662Z,92.89
2018-10-18T06:46:57.317Z,92.63
2018-10-18T06:49:25.915Z,92.68
2018-10-18T06:51:54.470Z,92.85
2018-10-18T06:54:24.088Z,93.29
2018-10-18T06:56:52.641Z,93.61
2018-10-18T06:59:22.234Z,93.58
2018-10-18T07:01:50.809Z,93.87
2018-10-18T07:04:19.381Z,93.78
2018-10-18T07:06:47.963Z,93.65
2018-10-18T07:09:17.398Z,93.55
2018-10-18T07:11:46.630Z,93.71
2018-10-18T07:14:16.324Z,93.72
2018-10-18T07:16:46.950Z,93.59
2018-10-18T07:19:16.527Z,93.70
2018-10-18T07:21:45.766Z,93.42
2018-10-18T07:24:16.079Z,93.89
2018-10-18T07:26:46.401Z,93.66
2018-10-18T07:29:15.421Z,93.38
2018-10-18T07:31:45.820Z,93.44
2018-10-18T07:34:16.148Z,93.12
2018-10-18T07:36:46.367Z,92.91
2018-10-18T07:39:16.431Z,92.27
2018-10-18T07:41:46.643Z,91.79
2018-10-18T07:44:17.303Z,91.10
2018-10-18T07:46:46.764Z,91.26
2018-10-18T07:49:16.726Z,90.31
2018-10-18T07:51:47.300Z,89.99
2018-10-18T07:54:16.751Z,89.29
2018-10-18T07:56:47.359Z,88.99
2018-10-18T07:59:16.866Z,88.48
2018-10-18T08:01:46.439Z,87.38
2018-10-18T08:04:15.548Z,86.66
2018-10-18T08:06:45.473Z,85.67
2018-10-18T08:09:15.996Z,84.36
2018-10-18T08:11:45.668Z,84.92
2018-10-18T08:14:15.803Z,83.85
2018-10-18T08:16:45.273Z,83.73
2018-10-18T08:19:14.639Z,83.96
2018-10-18T08:21:43.164Z,84.29
2018-10-18T08:24:12.622Z,84.52
2018-10-18T08:26:41.255Z,84.53
2018-10-18T08:29:10.728Z,84.74
2018-10-18T08:31:40.380Z,83.63
2018-10-18T08:34:08.932Z,83.36
2018-10-18T08:36:38.559Z,82.98
2018-10-18T08:39:09.631Z,82.57
2018-10-18T08:41:38.240Z,82.61
2018-10-18T08:44:07.573Z,81.95
2018-10-18T08:46:36.508Z,80.12
2018-10-18T08:49:06.058Z,79.98
2018-10-18T08:51:35.695Z,80.51
2018-10-18T08:54:05.904Z,78.67
2018-10-18T08:56:35.594Z,77.90
2018-10-18T08:59:05.388Z,78.22
2018-10-18T09:01:34.935Z,77.17
2018-10-18T09:04:04.502Z,77.61
2018-10-18T09:06:33.972Z,76.97
2018-10-18T09:09:02.597Z,75.88
2018-10-18T09:11:32.101Z,76.03
2018-10-18T09:14:00.726Z,75.74
2018-10-18T09:16:30.423Z,75.46
2018-10-18T09:18:59.959Z,74.76
2018-10-18T09:21:29.410Z,74.47
2018-10-18T09:23:58.120Z,73.76
2018-10-18T09:26:26.607Z,73.85
2018-10-18T09:28:55.165Z,72.27
2018-10-18T09:31:23.762Z,71.27
2018-10-18T09:33:52.322Z,70.87
2018-10-18T09:36:20.888Z,71.86
2018-10-18T09:38:49.483Z,71.42
2018-10-18T09:41:18.074Z,72.79
2018-10-18T09:43:46.662Z,71.95
2018-10-18T09:46:15.946Z,70.43
2018-10-18T09:48:45.297Z,70.21
2018-10-18T09:51:14.873Z,69.98
2018-10-18T09:53:44.435Z,68.69
2018-10-18T09:56:13.367Z,70.22
2018-10-18T09:58:41.954Z,68.67
2018-10-18T10:01:15.966Z,69.53
2018-10-18T10:03:45.281Z,69.68
2018-10-18T10:06:14.859Z,69.36
2018-10-18T10:08:44.261Z,69.83
2018-10-18T10:11:12.766Z,68.99
2018-10-18T10:13:41.364Z,69.83
2018-10-18T10:16:09.945Z,70.12
2018-10-18T10:18:39.535Z,68.97
2018-10-18T10:21:08.989Z,69.28
2018-10-18T10:23:37.535Z,68.95
2018-10-18T10:26:06.960Z,66.69
2018-10-18T10:28:35.539Z,66.61
2018-10-18T10:31:04.258Z,66.33
2018-10-18T10:33:33.704Z,66.31
2018-10-18T10:36:02.350Z,65.86
2018-10-18T10:38:31.981Z,65.34
2018-10-18T10:41:00.604Z,64.24
2018-10-18T10:43:29.974Z,63.71
2018-10-18T10:45:59.447Z,62.47
2018-10-18T10:48:29.004Z,61.95
2018-10-18T10:50:58.619Z,62.10
2018-10-18T10:53:28.232Z,62.33
2018-10-18T10:55:56.857Z,61.96
2018-10-18T10:58:26.520Z,61.80
2018-10-18T11:01:12.474Z,60.95
2018-10-18T11:03:41.908Z,60.98
2018-10-18T11:06:10.780Z,60.81
2018-10-18T11:08:39.350Z,60.44
2018-10-18T11:11:08.258Z,59.91
2018-10-18T11:13:36.824Z,60.80
2018-10-18T11:16:06.816Z,60.34
2018-10-18T11:18:36.434Z,59.93
2018-10-18T11:21:05.976Z,59.99
2018-10-18T11:23:35.110Z,60.00
2018-10-18T11:26:04.057Z,59.13
2018-10-18T11:28:32.692Z,58.89
2018-10-18T11:31:01.298Z,58.03
2018-10-18T11:33:29.865Z,58.75
2018-10-18T11:35:58.393Z,57.85
2018-10-18T11:38:26.970Z,57.00
2018-10-18T11:40:55.541Z,57.27
2018-10-18T11:43:24.151Z,56.39
2018-10-18T11:45:53.052Z,57.11
2018-10-18T11:48:21.590Z,57.67
2018-10-18T11:50:50.191Z,57.98
2018-10-18T11:53:18.801Z,57.30
2018-10-18T11:55:47.409Z,56.97
2018-10-18T11:58:16.872Z,57.65
2018-10-18T12:00:45.729Z,58.12
2018-10-18T12:03:14.333Z,58.88
2018-10-18T12:05:43.260Z,58.98
2018-10-18T12:08:11.865Z,59.56
2018-10-18T12:10:40.465Z,59.01
2018-10-18T12:13:09.027Z,59.20
2018-10-18T12:15:37.626Z,59.04
2018-10-18T12:18:06.517Z,58.02
2018-10-18T12:20:35.090Z,58.91
2018-10-18T12:23:04.863Z,58.99
2018-10-18T12:25:33.437Z,58.90
2018-10-18T12:28:01.986Z,59.44
2018-10-18T12:30:30.556Z,60.28
2018-10-18T12:32:59.154Z,61.42
2018-10-18T12:35:27.720Z,61.44
2018-10-18T12:37:56.383Z,61.42
2018-10-18T12:40:25.792Z,61.46
2018-10-18T12:42:54.371Z,61.10
2018-10-18T12:45:22.946Z,61.24
2018-10-18T12:47:51.747Z,61.28
2018-10-18T12:50:20.320Z,61.24
2018-10-18T12:52:48.882Z,61.54
2018-10-18T12:55:17.472Z,61.49
2018-10-18T12:57:46.605Z,62.27
2018-10-18T13:00:16.019Z,62.42
2018-10-18T13:02:45.309Z,62.09
2018-10-18T13:05:14.511Z,61.96
2018-10-18T13:07:43.417Z,61.87
2018-10-18T13:10:13.240Z,61.93
2018-10-18T13:12:42.149Z,61.64
2018-10-18T13:15:11.629Z,61.60
2018-10-18T13:17:40.286Z,62.63
2018-10-18T13:20:09.865Z,62.24
2018-10-18T13:22:38.512Z,63.54
2018-10-18T13:25:08.652Z,63.59
2018-10-18T13:27:38.358Z,63.35
2018-10-18T13:30:08.281Z,63.31
2018-10-18T13:32:38.106Z,64.02
2018-10-18T13:35:06.937Z,64.11
2018-10-18T13:37:35.851Z,64.03
2018-10-18T13:40:05.420Z,66.01
2018-10-18T13:42:34.803Z,65.10
2018-10-18T13:45:04.471Z,66.20
2018-10-18T13:47:33.839Z,65.75
2018-10-18T13:50:02.852Z,66.96
2018-10-18T13:52:31.406Z,66.41
2018-10-18T13:54:59.968Z,67.62
2018-10-18T13:57:29.495Z,67.90
2018-10-18T14:00:26.908Z,67.97
2018-10-18T14:02:56.608Z,68.49
2018-10-18T14:05:26.655Z,69.05
2018-10-18T14:07:56.811Z,69.76
2018-10-18T14:10:26.411Z,69.07
2018-10-18T14:12:55.969Z,69.18
2018-10-18T14:15:25.437Z,69.88
2018-10-18T14:17:54.090Z,69.91
2018-10-18T14:20:24.090Z,70.86
2018-10-18T14:22:52.677Z,71.49
2018-10-18T14:25:22.271Z,72.18
2018-10-18T14:27:50.866Z,72.30
2018-10-18T14:30:19.466Z,72.88
2018-10-18T14:32:48.070Z,73.12
2018-10-18T14:35:17.609Z,72.81
2018-10-18T14:37:46.758Z,73.41
2018-10-18T14:40:17.246Z,75.40
2018-10-18T14:42:46.851Z,76.27
2018-10-18T14:45:17.467Z,76.68
2018-10-18T14:47:47.135Z,76.12
2018-10-18T14:50:16.725Z,75.50
2018-10-18T14:52:46.843Z,75.43
2018-10-18T14:55:16.929Z,77.06
2018-10-18T14:57:46.573Z,76.81
2018-10-18T15:00:16.781Z,76.94
2018-10-18T15:02:46.372Z,76.76
2018-10-18T15:05:16.574Z,77.02
2018-10-18T15:07:47.122Z,78.56
2018-10-18T15:10:16.370Z,77.30
2018-10-18T15:12:45.314Z,77.87
2018-10-18T15:15:16.170Z,78.48
2018-10-18T15:17:45.392Z,78.24
2018-10-18T15:20:15.940Z,78.98
2018-10-18T15:22:46.196Z,79.12
2018-10-18T15:25:16.567Z,79.78
2018-10-18T15:27:45.925Z,80.07
2018-10-18T15:30:15.926Z,80.47
2018-10-18T15:32:45.851Z,81.16
2018-10-18T15:35:15.222Z,80.37
2018-10-18T15:37:44.809Z,80.88
2018-10-18T15:40:15.600Z,81.25
2018-10-18T15:42:45.697Z,80.93
2018-10-18T15:45:15.729Z,81.08
2018-10-18T15:47:46.186Z,81.25
2018-10-18T15:50:16.305Z,81.90
2018-10-18T15:52:46.855Z,81.00
2018-10-18T15:55:15.721Z,81.43
2018-10-18T15:57:45.947Z,81.32
2018-10-18T16:00:15.226Z,81.06
2018-10-18T16:02:45.341Z,81.99
2018-10-18T16:05:14.521Z,82.28
2018-10-18T16:07:43.318Z,82.61
2018-10-18T16:10:11.874Z,82.74
2018-10-18T16:12:40.631Z,83.02
2018-10-18T16:15:10.409Z,82.92
2018-10-18T16:17:39.035Z,83.33
2018-10-18T16:20:08.712Z,84.03
2018-10-18T16:22:37.641Z,83.60
2018-10-18T16:25:06.976Z,83.33
2018-10-18T16:27:35.583Z,84.17
2018-10-18T16:30:04.272Z,84.76
2018-10-18T16:32:32.839Z,84.76
2018-10-18T16:35:01.556Z,86.59
2018-10-18T16:37:30.101Z,85.61
2018-10-18T16:39:58.714Z,85.17
2018-10-18T16:42:27.341Z,85.28
2018-10-18T16:44:56.068Z,84.66
2018-10-18T16:47:24.714Z,85.08
2018-10-18T16:49:53.625Z,84.55
2018-10-18T16:52:22.210Z,84.56
2018-10-18T16:54:52.092Z,84.88
2018-10-18T16:57:21.094Z,85.75
2018-10-18T16:59:50.697Z,85.73
2018-10-18T17:02:20.146Z,85.20
2018-10-18T17:04:49.646Z,85.13
2018-10-18T17:07:19.094Z,85.86
2018-10-18T17:09:48.560Z,85.96
2018-10-18T17:12:18.075Z,85.65
2018-10-18T17:14:46.504Z,85.07
2018-10-18T17:17:15.686Z,85.71
2018-10-18T17:19:45.259Z,86.42
2018-10-18T17:22:15.557Z,86.78
2018-10-18T17:24:44.501Z,86.46
2018-10-18T17:27:16.761Z,85.64
2018-10-18T17:29:46.321Z,85.69
2018-10-18T17:32:15.622Z,86.74
2018-10-18T17:34:44.785Z,85.98
2018-10-18T17:37:13.414Z,86.58
2018-10-18T17:39:42.241Z,86.16
2018-10-18T17:42:12.081Z,86.68
2018-10-18T17:44:42.076Z,86.85
2018-10-18T17:47:10.833Z,86.68
2018-10-18T17:49:39.463Z,87.17
2018-10-18T17:52:08.196Z,87.62
2018-10-18T17:54:37.767Z,87.10
2018-10-18T17:57:06.497Z,87.59
2018-10-18T17:59:35.833Z,87.92
2018-10-18T18:02:04.910Z,87.08
2018-10-18T18:04:40.951Z,88.32
2018-10-18T18:07:10.699Z,88.86
2018-10-18T18:09:39.441Z,88.66
2018-10-18T18:12:09.023Z,90.11
2018-10-18T18:14:37.579Z,89.09
2018-10-18T18:17:06.436Z,89.82
2018-10-18T18:19:36.049Z,89.79
2018-10-18T18:22:06.202Z,89.39
2018-10-18T18:24:35.979Z,90.64
2018-10-18T18:27:04.612Z,90.04
2018-10-18T18:29:34.292Z,90.24
2018-10-18T18:32:04.830Z,90.87
2018-10-18T18:34:34.955Z,90.39
2018-10-18T18:37:05.062Z,90.92
2018-10-18T18:39:34.816Z,91.01
2018-10-18T18:42:03.666Z,91.55
2018-10-18T18:44:32.389Z,90.32
2018-10-18T18:47:01.029Z,90.29
2018-10-18T18:49:29.737Z,90.88
2018-10-18T18:51:58.483Z,90.47
2018-10-18T18:54:27.028Z,90.37
2018-10-18T18:56:56.596Z,90.27
2018-10-18T18:59:26.100Z,89.74
2018-10-18T19:01:55.782Z,89.76
2018-10-18T19:04:24.336Z,89.88
2018-10-18T19:06:52.917Z,90.28
2018-10-18T19:09:21.629Z,89.83
2018-10-18T19:11:50.188Z,89.42
2018-10-18T19:14:19.406Z,89.76
2018-10-18T19:16:47.947Z,90.08
2018-10-18T19:19:16.564Z,90.19
2018-10-18T19:21:45.954Z,89.83
2018-10-18T19:24:15.246Z,89.90
2018-10-18T19:26:44.782Z,89.77
2018-10-18T19:29:13.401Z,90.12
2018-10-18T19:31:41.987Z,89.26
2018-10-18T19:34:10.681Z,89.60
2018-10-18T19:36:40.147Z,89.85
2018-10-18T19:39:09.245Z,89.52
2018-10-18T19:41:38.675Z,88.52
2018-10-18T19:44:07.221Z,88.89
2018-10-18T19:46:35.878Z,88.51
2018-10-18T19:49:04.947Z,88.82
2018-10-18T19:51:33.524Z,89.77
2018-10-18T19:54:02.107Z,89.19
2018-10-18T19:56:30.757Z,88.43
2018-10-18T19:59:00.805Z,88.18
2018-10-18T20:01:29.520Z,87.80
2018-10-18T20:03:59.101Z,88.05
2018-10-18T20:06:27.879Z,87.28
2018-10-18T20:08:56.578Z,87.21
2018-10-18T20:11:26.213Z,87.12
2018-10-18T20:13:54.797Z,87.69
2018-10-18T20:16:23.486Z,86.66
2018-10-18T20:18:52.138Z,86.71
2018-10-18T20:21:20.698Z,86.72
2018-10-18T20:23:49.266Z,85.99
2018-10-18T20:26:18.107Z,86.55
2018-10-18T20:28:46.453Z,86.18
2018-10-18T20:31:16.596Z,86.33
2018-10-18T20:33:46.545Z,85.73
2018-10-18T20:36:15.863Z,85.88
2018-10-18T20:38:46.140Z,85.55
2018-10-18T20:41:16.163Z,86.24
2018-10-18T20:43:46.384Z,85.36
2018-10-18T20:46:15.625Z,85.80
2018-10-18T20:48:44.291Z,85.05
2018-10-18T20:51:14.157Z,85.22
2018-10-18T20:53:42.724Z,85.85
2018-10-18T20:56:11.356Z,85.54
2018-10-18T20:58:40.957Z,85.51
2018-10-18T21:01:09.541Z,85.46
2018-10-18T21:03:38.141Z,85.48
2018-10-18T21:06:06.823Z,85.52
2018-10-18T21:08:35.415Z,85.19
2018-10-18T21:11:04.410Z,84.24
2018-10-18T21:13:32.979Z,84.54
2018-10-18T21:16:01.649Z,84.65
2018-10-18T21:18:30.238Z,84.59
2018-10-18T21:20:58.937Z,83.94
2018-10-18T21:23:28.064Z,84.02
2018-10-18T21:25:57.727Z,83.80
2018-10-18T21:28:27.189Z,84.12
2018-10-18T21:30:55.778Z,83.69
2018-10-18T21:33:25.371Z,83.83
2018-10-18T21:35:55.053Z,83.59
2018-10-18T21:38:24.806Z,83.65
2018-10-18T21:40:54.423Z,83.06
2018-10-18T21:43:22.971Z,82.92
2018-10-18T21:45:56.625Z,82.98
2018-10-18T21:48:27.722Z,83.03
2018-10-18T21:50:56.444Z,83.62
2018-10-18T21:53:25.965Z,82.61
2018-10-18T21:55:54.510Z,83.12
2018-10-18T21:58:24.153Z,83.43
2018-10-18T22:00:53.609Z,83.35
2018-10-18T22:03:23.040Z,83.86
2018-10-18T22:05:52.621Z,83.28
2018-10-18T22:08:22.166Z,83.36
2018-10-18T22:10:51.612Z,82.94
2018-10-18T22:13:21.233Z,83.22
2018-10-18T22:15:50.699Z,82.93
2018-10-18T22:18:20.200Z,82.20
2018-10-18T22:20:49.606Z,81.85
2018-10-18T22:23:18.225Z,82.40
2018-10-18T22:25:47.874Z,82.35
2018-10-18T22:28:16.844Z,82.13
2018-10-18T22:30:46.249Z,82.07
2018-10-18T22:33:15.263Z,81.85
2018-10-18T22:35:44.113Z,81.92
2018-10-18T22:38:12.670Z,81.05
2018-10-18T22:40:42.136Z,81.49
2018-10-18T22:43:10.694Z,81.00
2018-10-18T22:45:40.298Z,81.06
2018-10-18T22:48:08.849Z,81.64
2018-10-18T22:50:38.250Z,81.87
2018-10-18T22:53:07.783Z,80.50
2018-10-18T22:55:37.200Z,79.86
2018-10-18T22:58:06.810Z,80.66
2018-10-18T23:00:35.390Z,81.04
2018-10-18T23:03:04.791Z,80.95
2018-10-18T23:05:33.305Z,80.32
2018-10-18T23:08:01.842Z,80.71
2018-10-18T23:10:30.377Z,80.64
2018-10-18T23:12:58.924Z,80.26
2018-10-18T23:15:27.441Z,80.23
2018-10-18T23:17:56.076Z,80.41
2018-10-18T23:20:25.624Z,81.31
2018-10-18T23:22:54.162Z,80.59
2018-10-18T23:25:22.724Z,79.90
2018-10-18T23:27:52.153Z,79.42
2018-10-18T23:30:20.732Z,79.31
2018-10-18T23:32:50.348Z,78.79
2018-10-18T23:35:18.984Z,79.81
2018-10-18T23:37:48.625Z,79.64
2018-10-18T23:40:17.233Z,79.82
2018-10-18T23:42:46.803Z,79.67
2018-10-18T23:45:16.447Z,79.11
2018-10-18T23:47:46.607Z,78.53
2018-10-18T23:50:15.847Z,78.12
2018-10-18T23:52:45.162Z,78.13
2018-10-18T23:55:15.295Z,77.60
2018-10-18T23:57:45.689Z,77.57
